EIKY/KIR METAR and TAF weather

Enter ICAO airport designator
Station Type Date Time Source
EIKY METAR 2021/09/16 17:00 UTC NOAA

EIKY 161700Z 18012KT 150V210 9999 FEW021 SCT026 18/15 Q1011


Station Type Date Time Source
EIKY Decoded METAR 2021/09/16 17:00 UTC NOAA

Station name not available
Sep 16, 2021 - 01:00 PM EDT / 2021.09.16 1700 UTC
Wind: from the S (180 degrees) at 14 MPH (12 KT) (direction variable):0
Visibility: greater than 7 mile(s):0
Sky conditions: partly cloudy
Temperature: 64 F (18 C)
Dew Point: 59 F (15 C)
Relative Humidity: 82%
Pressure (altimeter): 29.85 in. Hg (1011 hPa)
ob: EIKY 161700Z 18012KT 150V210 9999 FEW021 SCT026 18/15 Q1011
cycle: 17

Station Type Date Time Source
EIKY TAF UTC NOAA

Error!

Example: see airport list